sensor_id;sensor_type;location;lat;lon;timestamp;pressure;altitude;pressure_sealevel;temperature;humidity
71917;BME280;59793;46.506;6.674;2022-09-09T00:06:28;96985.09;;;20.30;55.02
71917;BME280;59793;46.506;6.674;2022-09-09T00:11:39;96986.88;;;20.14;55.16
71917;BME280;59793;46.506;6.674;2022-09-09T00:14:13;96985.78;;;20.11;54.88
71917;BME280;59793;46.506;6.674;2022-09-09T00:16:47;97001.13;;;20.07;55.06
71917;BME280;59793;46.506;6.674;2022-09-09T00:19:41;97010.13;;;19.93;55.02
71917;BME280;59793;46.506;6.674;2022-09-09T00:22:17;97013.94;;;19.92;55.72
71917;BME280;59793;46.506;6.674;2022-09-09T00:24:44;97007.16;;;19.84;55.61
71917;BME280;59793;46.506;6.674;2022-09-09T00:30:13;97009.22;;;19.73;56.39
71917;BME280;59793;46.506;6.674;2022-09-09T00:32:39;97015.00;;;19.68;56.81
71917;BME280;59793;46.506;6.674;2022-09-09T00:35:16;97002.44;;;19.68;56.99
71917;BME280;59793;46.506;6.674;2022-09-09T00:37:44;97008.59;;;19.62;57.70
71917;BME280;59793;46.506;6.674;2022-09-09T00:42:54;97024.47;;;19.42;60.88
71917;BME280;59793;46.506;6.674;2022-09-09T00:48:13;97037.56;;;18.91;62.53
71917;BME280;59793;46.506;6.674;2022-09-09T00:53:41;97042.91;;;18.91;63.46
71917;BME280;59793;46.506;6.674;2022-09-09T00:56:20;97043.25;;;18.93;64.20
71917;BME280;59793;46.506;6.674;2022-09-09T00:59:04;97045.94;;;18.93;64.52
71917;BME280;59793;46.506;6.674;2022-09-09T01:01:33;97060.19;;;18.76;65.81
71917;BME280;59793;46.506;6.674;2022-09-09T01:03:58;97053.81;;;18.62;68.62
71917;BME280;59793;46.506;6.674;2022-09-09T01:06:35;97027.59;;;18.50;70.79
71917;BME280;59793;46.506;6.674;2022-09-09T01:12:11;97024.38;;;18.21;73.62
71917;BME280;59793;46.506;6.674;2022-09-09T01:17:27;97038.84;;;18.20;75.10
71917;BME280;59793;46.506;6.674;2022-09-09T01:28:22;97039.03;;;17.74;78.29
71917;BME280;59793;46.506;6.674;2022-09-09T01:30:49;97037.94;;;17.67;78.79
71917;BME280;59793;46.506;6.674;2022-09-09T01:33:17;97041.81;;;17.49;79.73
71917;BME280;59793;46.506;6.674;2022-09-09T01:38:59;97042.22;;;17.43;80.35
71917;BME280;59793;46.506;6.674;2022-09-09T01:41:24;97040.69;;;17.46;79.96
71917;BME280;59793;46.506;6.674;2022-09-09T01:43:50;97034.13;;;17.68;78.53
71917;BME280;59793;46.506;6.674;2022-09-09T01:46:17;97033.72;;;17.88;78.17
71917;BME280;59793;46.506;6.674;2022-09-09T01:48:45;97033.72;;;17.81;79.43
71917;BME280;59793;46.506;6.674;2022-09-09T01:51:10;97028.00;;;17.86;79.63
71917;BME280;59793;46.506;6.674;2022-09-09T01:53:36;97024.56;;;17.89;79.04
71917;BME280;59793;46.506;6.674;2022-09-09T01:56:16;97025.28;;;17.93;77.82
71917;BME280;59793;46.506;6.674;2022-09-09T01:59:01;97029.38;;;18.12;77.43
71917;BME280;59793;46.506;6.674;2022-09-09T02:01:39;97020.19;;;18.20;76.96
71917;BME280;59793;46.506;6.674;2022-09-09T02:06:53;97023.53;;;18.31;77.18
71917;BME280;59793;46.506;6.674;2022-09-09T02:09:23;97020.81;;;18.38;76.14
71917;BME280;59793;46.506;6.674;2022-09-09T02:11:55;97014.28;;;18.43;76.13
71917;BME280;59793;46.506;6.674;2022-09-09T02:14:30;97006.44;;;18.22;77.93
71917;BME280;59793;46.506;6.674;2022-09-09T02:17:03;97008.53;;;17.96;76.36
71917;BME280;59793;46.506;6.674;2022-09-09T02:19:34;97016.88;;;17.98;77.11
71917;BME280;59793;46.506;6.674;2022-09-09T02:22:00;97012.38;;;17.88;78.48
71917;BME280;59793;46.506;6.674;2022-09-09T02:24:29;97008.59;;;17.75;78.11
71917;BME280;59793;46.506;6.674;2022-09-09T02:26:57;97010.63;;;17.42;79.86
71917;BME280;59793;46.506;6.674;2022-09-09T02:29:31;97007.16;;;17.56;78.83
71917;BME280;59793;46.506;6.674;2022-09-09T02:32:01;97009.78;;;17.66;78.31
71917;BME280;59793;46.506;6.674;2022-09-09T02:34:29;97013.19;;;17.74;77.79
71917;BME280;59793;46.506;6.674;2022-09-09T02:36:57;97002.41;;;17.99;72.71
71917;BME280;59793;46.506;6.674;2022-09-09T02:39:25;97006.44;;;18.22;74.17
71917;BME280;59793;46.506;6.674;2022-09-09T02:41:50;97009.09;;;18.25;75.13
71917;BME280;59793;46.506;6.674;2022-09-09T02:44:17;97011.78;;;18.22;75.71
71917;BME280;59793;46.506;6.674;2022-09-09T02:56:40;97005.13;;;17.92;76.95
71917;BME280;59793;46.506;6.674;2022-09-09T02:59:07;96995.53;;;18.02;77.00
71917;BME280;59793;46.506;6.674;2022-09-09T03:01:32;96981.81;;;18.03;77.24
71917;BME280;59793;46.506;6.674;2022-09-09T03:03:57;96996.38;;;17.88;77.46
71917;BME280;59793;46.506;6.674;2022-09-09T03:06:23;96993.66;;;17.99;76.55
71917;BME280;59793;46.506;6.674;2022-09-09T03:08:48;96989.88;;;17.96;76.26
71917;BME280;59793;46.506;6.674;2022-09-09T03:11:15;96985.31;;;17.93;76.44
71917;BME280;59793;46.506;6.674;2022-09-09T03:13:41;96990.25;;;17.91;76.60
71917;BME280;59793;46.506;6.674;2022-09-09T03:16:06;96989.50;;;17.90;77.02
71917;BME280;59793;46.506;6.674;2022-09-09T03:18:31;96992.47;;;18.03;76.49
71917;BME280;59793;46.506;6.674;2022-09-09T03:20:57;96989.88;;;17.96;77.04
71917;BME280;59793;46.506;6.674;2022-09-09T03:23:24;96988.72;;;17.94;76.76
71917;BME280;59793;46.506;6.674;2022-09-09T03:25:50;96998.63;;;17.93;77.04
71917;BME280;59793;46.506;6.674;2022-09-09T03:28:16;96987.88;;;18.07;76.26
71917;BME280;59793;46.506;6.674;2022-09-09T03:30:42;96994.84;;;17.87;77.90
71917;BME280;59793;46.506;6.674;2022-09-09T03:33:07;96999.50;;;17.76;78.32
71917;BME280;59793;46.506;6.674;2022-09-09T03:35:32;97010.16;;;17.76;78.28
71917;BME280;59793;46.506;6.674;2022-09-09T03:37:58;97001.06;;;17.55;79.45
71917;BME280;59793;46.506;6.674;2022-09-09T03:40:24;97003.38;;;17.57;78.51
71917;BME280;59793;46.506;6.674;2022-09-09T03:42:49;97006.38;;;17.59;79.24
71917;BME280;59793;46.506;6.674;2022-09-09T03:45:15;96998.41;;;17.55;78.82
71917;BME280;59793;46.506;6.674;2022-09-09T03:47:41;96992.31;;;17.58;78.67
71917;BME280;59793;46.506;6.674;2022-09-09T03:50:07;96998.41;;;17.55;78.88
71917;BME280;59793;46.506;6.674;2022-09-09T03:52:36;97000.69;;;17.60;77.95
71917;BME280;59793;46.506;6.674;2022-09-09T03:55:02;97004.44;;;17.66;77.80
71917;BME280;59793;46.506;6.674;2022-09-09T03:57:28;96983.22;;;17.45;78.34
71917;BME280;59793;46.506;6.674;2022-09-09T03:59:55;96994.97;;;17.58;78.40
71917;BME280;59793;46.506;6.674;2022-09-09T04:02:20;97001.00;;;17.73;77.97
71917;BME280;59793;46.506;6.674;2022-09-09T04:04:46;96987.38;;;17.60;77.76
71917;BME280;59793;46.506;6.674;2022-09-09T04:07:11;96995.31;;;17.71;77.24
71917;BME280;59793;46.506;6.674;2022-09-09T04:09:37;96982.41;;;17.55;77.86
71917;BME280;59793;46.506;6.674;2022-09-09T04:12:03;96989.25;;;17.63;77.98
71917;BME280;59793;46.506;6.674;2022-09-09T04:14:29;96991.53;;;17.65;78.12
71917;BME280;59793;46.506;6.674;2022-09-09T04:16:54;96990.41;;;17.55;78.47
71917;BME280;59793;46.506;6.674;2022-09-09T04:19:22;96983.53;;;17.65;77.90
71917;BME280;59793;46.506;6.674;2022-09-09T04:21:48;96983.19;;;17.52;78.48
71917;BME280;59793;46.506;6.674;2022-09-09T04:24:15;96983.56;;;17.54;78.41
71917;BME280;59793;46.506;6.674;2022-09-09T04:26:41;96983.50;;;17.68;77.80
71917;BME280;59793;46.506;6.674;2022-09-09T04:29:06;96981.25;;;17.63;77.89
71917;BME280;59793;46.506;6.674;2022-09-09T04:31:33;96977.44;;;17.64;77.62
71917;BME280;59793;46.506;6.674;2022-09-09T04:33:59;96976.72;;;17.60;78.11
71917;BME280;59793;46.506;6.674;2022-09-09T04:36:30;96980.09;;;17.64;78.25
71917;BME280;59793;46.506;6.674;2022-09-09T04:38:55;96984.72;;;17.57;78.67
71917;BME280;59793;46.506;6.674;2022-09-09T04:41:20;96983.50;;;17.68;78.07
71917;BME280;59793;46.506;6.674;2022-09-09T04:43:46;96982.25;;;17.91;77.32
71917;BME280;59793;46.506;6.674;2022-09-09T04:46:12;96987.66;;;17.80;78.30
71917;BME280;59793;46.506;6.674;2022-09-09T04:48:37;96981.56;;;17.83;77.06
71917;BME280;59793;46.506;6.674;2022-09-09T04:51:04;96980.41;;;17.81;76.84
71917;BME280;59793;46.506;6.674;2022-09-09T04:53:31;96981.13;;;17.92;76.90
71917;BME280;59793;46.506;6.674;2022-09-09T04:56:06;96985.69;;;17.95;76.51
71917;BME280;59793;46.506;6.674;2022-09-09T04:58:33;96983.31;;;18.04;75.93
71917;BME280;59793;46.506;6.674;2022-09-09T05:01:11;96984.47;;;18.07;75.98
71917;BME280;59793;46.506;6.674;2022-09-09T05:03:37;96981.00;;;18.13;75.62
71917;BME280;59793;46.506;6.674;2022-09-09T05:06:09;96980.22;;;18.17;75.70
71917;BME280;59793;46.506;6.674;2022-09-09T05:08:39;96993.97;;;18.08;74.49
71917;BME280;59793;46.506;6.674;2022-09-09T05:11:16;96982.56;;;18.04;74.48
71917;BME280;59793;46.506;6.674;2022-09-09T05:13:42;96996.66;;;18.04;75.05
71917;BME280;59793;46.506;6.674;2022-09-09T05:16:07;96985.22;;;18.07;74.49
71917;BME280;59793;46.506;6.674;2022-09-09T05:18:37;96990.91;;;18.13;74.08
71917;BME280;59793;46.506;6.674;2022-09-09T05:21:02;96990.94;;;18.09;74.23
71917;BME280;59793;46.506;6.674;2022-09-09T05:23:27;96994.66;;;18.19;74.08
71917;BME280;59793;46.506;6.674;2022-09-09T05:25:55;97005.97;;;18.37;74.24
71917;BME280;59793;46.506;6.674;2022-09-09T05:28:22;97000.69;;;18.30;75.25
71917;BME280;59793;46.506;6.674;2022-09-09T05:31:05;97002.97;;;18.28;74.81
71917;BME280;59793;46.506;6.674;2022-09-09T05:33:33;96999.22;;;18.19;75.31
71917;BME280;59793;46.506;6.674;2022-09-09T05:36:02;96996.16;;;18.24;75.52
71917;BME280;59793;46.506;6.674;2022-09-09T05:38:28;97001.53;;;18.17;75.25
71917;BME280;59793;46.506;6.674;2022-09-09T05:40:54;96999.22;;;18.19;74.98
71917;BME280;59793;46.506;6.674;2022-09-09T05:43:22;97002.56;;;18.30;75.25
71917;BME280;59793;46.506;6.674;2022-09-09T05:45:48;97005.94;;;18.41;75.13
71917;BME280;59793;46.506;6.674;2022-09-09T05:48:15;97015.81;;;18.44;74.77
71917;BME280;59793;46.506;6.674;2022-09-09T05:50:53;97008.63;;;18.37;74.69
71917;BME280;59793;46.506;6.674;2022-09-09T05:53:19;97012.34;;;18.47;74.51
71917;BME280;59793;46.506;6.674;2022-09-09T05:55:46;97005.22;;;18.33;75.32
71917;BME280;59793;46.506;6.674;2022-09-09T05:58:12;96999.81;;;18.40;74.73
71917;BME280;59793;46.506;6.674;2022-09-09T06:00:39;97006.06;;;18.20;74.59
71917;BME280;59793;46.506;6.674;2022-09-09T06:03:05;97012.16;;;18.24;75.35
71917;BME280;59793;46.506;6.674;2022-09-09T06:05:30;97005.28;;;18.26;76.18
71917;BME280;59793;46.506;6.674;2022-09-09T06:07:55;97013.78;;;18.07;76.45
71917;BME280;59793;46.506;6.674;2022-09-09T06:10:21;97021.38;;;18.12;76.10
71917;BME280;59793;46.506;6.674;2022-09-09T06:12:47;97016.75;;;18.20;75.98
71917;BME280;59793;46.506;6.674;2022-09-09T06:15:12;97013.78;;;18.10;76.54
71917;BME280;59793;46.506;6.674;2022-09-09T06:17:37;97013.75;;;18.14;77.47
71917;BME280;59793;46.506;6.674;2022-09-09T06:20:04;97016.75;;;18.20;75.83
71917;BME280;59793;46.506;6.674;2022-09-09T06:22:30;97024.44;;;18.10;76.47
71917;BME280;59793;46.506;6.674;2022-09-09T06:24:55;97027.44;;;18.16;75.97
71917;BME280;59793;46.506;6.674;2022-09-09T06:27:21;97024.41;;;18.14;75.07
71917;BME280;59793;46.506;6.674;2022-09-09T06:29:47;97030.88;;;18.17;75.07
71917;BME280;59793;46.506;6.674;2022-09-09T06:32:13;97029.66;;;18.25;74.49
71917;BME280;59793;46.506;6.674;2022-09-09T06:34:38;97026.53;;;18.37;73.93
71917;BME280;59793;46.506;6.674;2022-09-09T06:37:04;97029.72;;;18.18;74.16
71917;BME280;59793;46.506;6.674;2022-09-09T06:39:31;97034.25;;;18.24;74.16
71917;BME280;59793;46.506;6.674;2022-09-09T06:42:02;97040.00;;;18.19;74.71
71917;BME280;59793;46.506;6.674;2022-09-09T06:44:27;97039.22;;;18.19;74.55
71917;BME280;59793;46.506;6.674;2022-09-09T06:46:58;97035.81;;;18.18;74.56
71917;BME280;59793;46.506;6.674;2022-09-09T06:49:23;97039.91;;;18.30;73.72
71917;BME280;59793;46.506;6.674;2022-09-09T06:51:49;97048.69;;;18.27;74.18
71917;BME280;59793;46.506;6.674;2022-09-09T06:54:15;97040.91;;;18.54;73.76
71917;BME280;59793;46.506;6.674;2022-09-09T06:56:41;97048.81;;;18.64;72.86
71917;BME280;59793;46.506;6.674;2022-09-09T06:59:08;97038.91;;;18.65;72.73
71917;BME280;59793;46.506;6.674;2022-09-09T07:01:38;97040.03;;;18.68;72.62
71917;BME280;59793;46.506;6.674;2022-09-09T07:04:05;97035.34;;;18.82;72.20
71917;BME280;59793;46.506;6.674;2022-09-09T07:06:36;97047.63;;;18.73;72.52
71917;BME280;59793;46.506;6.674;2022-09-09T07:09:07;97056.16;;;18.53;73.19
71917;BME280;59793;46.506;6.674;2022-09-09T07:11:39;97047.41;;;18.49;72.73
71917;BME280;59793;46.506;6.674;2022-09-09T07:14:07;97053.47;;;18.53;73.25
71917;BME280;59793;46.506;6.674;2022-09-09T07:16:33;97052.22;;;18.69;72.33
71917;BME280;59793;46.506;6.674;2022-09-09T07:19:04;97058.22;;;18.87;71.78
71917;BME280;59793;46.506;6.674;2022-09-09T07:21:30;97047.88;;;18.89;71.84
71917;BME280;59793;46.506;6.674;2022-09-09T07:23:56;97058.56;;;18.89;71.31
71917;BME280;59793;46.506;6.674;2022-09-09T07:26:24;97061.28;;;18.82;70.46
71917;BME280;59793;46.506;6.674;2022-09-09T07:28:50;97054.06;;;18.79;70.43
71917;BME280;59793;46.506;6.674;2022-09-09T07:31:18;97061.59;;;18.91;69.34
71917;BME280;59793;46.506;6.674;2022-09-09T07:33:46;97057.09;;;18.84;70.08
71917;BME280;59793;46.506;6.674;2022-09-09T07:36:24;97059.94;;;19.04;69.54
71917;BME280;59793;46.506;6.674;2022-09-09T07:38:53;97063.34;;;19.08;69.08
71917;BME280;59793;46.506;6.674;2022-09-09T07:41:25;97061.47;;;19.05;68.58
71917;BME280;59793;46.506;6.674;2022-09-09T07:43:52;97067.78;;;19.26;68.29
71917;BME280;59793;46.506;6.674;2022-09-09T07:46:20;97074.72;;;19.16;65.03
71917;BME280;59793;46.506;6.674;2022-09-09T07:48:46;97075.88;;;19.15;60.68
71917;BME280;59793;46.506;6.674;2022-09-09T07:51:29;97075.41;;;19.24;57.60
71917;BME280;59793;46.506;6.674;2022-09-09T07:53:59;97070.78;;;19.28;59.51
71917;BME280;59793;46.506;6.674;2022-09-09T07:56:31;97079.13;;;19.33;60.47
71917;BME280;59793;46.506;6.674;2022-09-09T07:58:58;97091.63;;;19.44;59.50
71917;BME280;59793;46.506;6.674;2022-09-09T08:01:34;97086.28;;;19.44;57.74
71917;BME280;59793;46.506;6.674;2022-09-09T08:04:14;97092.00;;;19.42;60.11
71917;BME280;59793;46.506;6.674;2022-09-09T08:06:42;97089.81;;;19.33;61.28
71917;BME280;59793;46.506;6.674;2022-09-09T08:09:09;97095.59;;;19.28;60.36
71917;BME280;59793;46.506;6.674;2022-09-09T08:11:36;97091.88;;;19.19;62.69
71917;BME280;59793;46.506;6.674;2022-09-09T08:14:03;97097.16;;;19.26;62.47
71917;BME280;59793;46.506;6.674;2022-09-09T08:16:32;97107.84;;;19.26;62.47
71917;BME280;59793;46.506;6.674;2022-09-09T08:18:58;97108.88;;;19.35;62.39
71917;BME280;59793;46.506;6.674;2022-09-09T08:21:27;97107.59;;;19.51;60.88
71917;BME280;59793;46.506;6.674;2022-09-09T08:23:54;97108.50;;;19.37;61.30
71917;BME280;59793;46.506;6.674;2022-09-09T08:26:21;97111.34;;;19.19;61.21
71917;BME280;59793;46.506;6.674;2022-09-09T08:28:52;97103.50;;;19.39;62.34
71917;BME280;59793;46.506;6.674;2022-09-09T08:31:21;97106.09;;;19.46;62.11
71917;BME280;59793;46.506;6.674;2022-09-09T08:33:48;97105.31;;;19.49;61.51
71917;BME280;59793;46.506;6.674;2022-09-09T08:36:17;97119.44;;;19.46;61.31
71917;BME280;59793;46.506;6.674;2022-09-09T08:38:47;97110.91;;;19.66;60.94
71917;BME280;59793;46.506;6.674;2022-09-09T08:49:58;97119.41;;;20.49;56.43
71917;BME280;59793;46.506;6.674;2022-09-09T08:52:50;97113.06;;;20.66;57.05
71917;BME280;59793;46.506;6.674;2022-09-09T08:57:41;97117.97;;;20.95;56.71
71917;BME280;59793;46.506;6.674;2022-09-09T09:00:09;97132.47;;;20.97;57.42
71917;BME280;59793;46.506;6.674;2022-09-09T09:05:47;97131.69;;;20.73;57.51
71917;BME280;59793;46.506;6.674;2022-09-09T09:11:06;97133.28;;;20.71;56.11
71917;BME280;59793;46.506;6.674;2022-09-09T09:13:40;97146.78;;;20.87;55.63
71917;BME280;59793;46.506;6.674;2022-09-09T09:16:26;97125.22;;;21.45;54.19
71917;BME280;59793;46.506;6.674;2022-09-09T09:18:52;97123.84;;;21.33;52.96
71917;BME280;59793;46.506;6.674;2022-09-09T09:21:35;97127.31;;;21.34;54.29
71917;BME280;59793;46.506;6.674;2022-09-09T09:24:01;97122.16;;;21.19;52.32
71917;BME280;59793;46.506;6.674;2022-09-09T09:26:34;97126.53;;;21.33;51.92
71917;BME280;59793;46.506;6.674;2022-09-09T09:29:09;97121.66;;;21.28;52.55
71917;BME280;59793;46.506;6.674;2022-09-09T09:31:37;97116.63;;;21.30;52.57
71917;BME280;59793;46.506;6.674;2022-09-09T09:34:02;97121.38;;;21.86;53.40
71917;BME280;59793;46.506;6.674;2022-09-09T09:36:40;97130.81;;;21.74;51.89
71917;BME280;59793;46.506;6.674;2022-09-09T09:39:07;97123.22;;;21.69;53.34
71917;BME280;59793;46.506;6.674;2022-09-09T09:41:38;97128.53;;;21.92;53.26
71917;BME280;59793;46.506;6.674;2022-09-09T09:44:06;97125.75;;;21.36;53.28
71917;BME280;59793;46.506;6.674;2022-09-09T09:46:49;97113.38;;;21.42;53.04
71917;BME280;59793;46.506;6.674;2022-09-09T09:49:16;97123.97;;;20.79;55.11
71917;BME280;59793;46.506;6.674;2022-09-09T09:51:43;97123.16;;;20.82;53.62
71917;BME280;59793;46.506;6.674;2022-09-09T09:56:39;97124.56;;;21.37;50.30
71917;BME280;59793;46.506;6.674;2022-09-09T10:01:53;97129.53;;;21.39;50.87
71917;BME280;59793;46.506;6.674;2022-09-09T10:04:23;97124.59;;;21.57;48.58
71917;BME280;59793;46.506;6.674;2022-09-09T10:06:50;97137.19;;;21.60;49.89
71917;BME280;59793;46.506;6.674;2022-09-09T10:11:55;97138.97;;;22.07;50.71
71917;BME280;59793;46.506;6.674;2022-09-09T10:20:34;97123.59;;;21.91;49.41
71917;BME280;59793;46.506;6.674;2022-09-09T10:28:40;97129.09;;;21.84;48.94
71917;BME280;59793;46.506;6.674;2022-09-09T10:31:31;97118.34;;;22.04;48.07
71917;BME280;59793;46.506;6.674;2022-09-09T10:36:47;97096.97;;;21.80;48.18
71917;BME280;59793;46.506;6.674;2022-09-09T10:39:34;97109.06;;;21.88;46.88
71917;BME280;59793;46.506;6.674;2022-09-09T10:42:09;97115.25;;;21.85;46.91
71917;BME280;59793;46.506;6.674;2022-09-09T10:47:21;97104.31;;;22.16;46.58
71917;BME280;59793;46.506;6.674;2022-09-09T10:50:47;97102.50;;;22.09;47.20
71917;BME280;59793;46.506;6.674;2022-09-09T10:55:39;97106.94;;;22.19;47.78
71917;BME280;59793;46.506;6.674;2022-09-09T10:58:12;97109.16;;;22.57;47.73
71917;BME280;59793;46.506;6.674;2022-09-09T11:00:42;97095.97;;;22.10;45.72
71917;BME280;59793;46.506;6.674;2022-09-09T11:03:23;97088.81;;;22.04;46.79
71917;BME280;59793;46.506;6.674;2022-09-09T11:06:04;97095.78;;;22.21;48.13
71917;BME280;59793;46.506;6.674;2022-09-09T11:08:32;97102.19;;;22.43;47.42
71917;BME280;59793;46.506;6.674;2022-09-09T11:11:14;97104.69;;;22.51;46.23
71917;BME280;59793;46.506;6.674;2022-09-09T11:14:05;97097.91;;;22.46;46.32
71917;BME280;59793;46.506;6.674;2022-09-09T11:16:53;97124.53;;;22.73;46.07
71917;BME280;59793;46.506;6.674;2022-09-09T11:19:34;97107.00;;;22.85;45.49
71917;BME280;59793;46.506;6.674;2022-09-09T11:22:15;97101.53;;;22.88;45.34
71917;BME280;59793;46.506;6.674;2022-09-09T11:25:07;97101.19;;;22.37;44.46
71917;BME280;59793;46.506;6.674;2022-09-09T11:39:42;97093.25;;;22.83;42.73
71917;BME280;59793;46.506;6.674;2022-09-09T11:44:36;97102.94;;;23.71;42.42
71917;BME280;59793;46.506;6.674;2022-09-09T11:47:02;97100.50;;;23.31;41.75
71917;BME280;59793;46.506;6.674;2022-09-09T11:49:39;97086.97;;;23.64;42.92
71917;BME280;59793;46.506;6.674;2022-09-09T11:52:24;97100.75;;;24.08;43.09
71917;BME280;59793;46.506;6.674;2022-09-09T11:54:54;97092.34;;;23.64;42.04
71917;BME280;59793;46.506;6.674;2022-09-09T11:57:25;97118.72;;;23.40;42.25
71917;BME280;59793;46.506;6.674;2022-09-09T11:59:53;97106.66;;;23.16;42.30
71917;BME280;59793;46.506;6.674;2022-09-09T12:02:25;97113.94;;;23.31;41.59
71917;BME280;59793;46.506;6.674;2022-09-09T12:05:07;97118.25;;;23.58;41.99
71917;BME280;59793;46.506;6.674;2022-09-09T12:07:39;97112.06;;;23.45;41.73
71917;BME280;59793;46.506;6.674;2022-09-09T12:12:37;97112.59;;;23.69;40.80
71917;BME280;59793;46.506;6.674;2022-09-09T12:17:30;97103.09;;;23.64;41.44
71917;BME280;59793;46.506;6.674;2022-09-09T12:20:15;97110.25;;;24.25;38.41
71917;BME280;59793;46.506;6.674;2022-09-09T12:25:30;97110.41;;;24.05;38.80
71917;BME280;59793;46.506;6.674;2022-09-09T12:28:20;97109.28;;;23.77;37.13
71917;BME280;59793;46.506;6.674;2022-09-09T12:31:06;97103.34;;;23.70;37.88
71917;BME280;59793;46.506;6.674;2022-09-09T12:33:39;97104.47;;;23.56;38.89
71917;BME280;59793;46.506;6.674;2022-09-09T12:36:12;97106.53;;;23.94;38.67
71917;BME280;59793;46.506;6.674;2022-09-09T12:38:40;97105.28;;;24.37;37.91
71917;BME280;59793;46.506;6.674;2022-09-09T12:41:18;97106.38;;;24.14;37.98
71917;BME280;59793;46.506;6.674;2022-09-09T12:43:44;97100.75;;;24.08;37.47
71917;BME280;59793;46.506;6.674;2022-09-09T12:46:17;97096.75;;;24.38;37.13
71917;BME280;59793;46.506;6.674;2022-09-09T12:48:46;97098.91;;;24.30;37.81
71917;BME280;59793;46.506;6.674;2022-09-09T12:51:24;97100.09;;;24.17;37.29
71917;BME280;59793;46.506;6.674;2022-09-09T12:53:51;97090.66;;;24.25;37.81
71917;BME280;59793;46.506;6.674;2022-09-09T12:56:26;97092.94;;;23.84;38.05
71917;BME280;59793;46.506;6.674;2022-09-09T12:58:53;97094.53;;;23.24;38.60
71917;BME280;59793;46.506;6.674;2022-09-09T13:01:31;97092.72;;;22.72;41.50
71917;BME280;59793;46.506;6.674;2022-09-09T13:03:59;97081.56;;;22.73;42.41
71917;BME280;59793;46.506;6.674;2022-09-09T13:06:25;97082.75;;;22.72;42.50
71917;BME280;59793;46.506;6.674;2022-09-09T13:08:52;97079.53;;;22.77;40.55
71917;BME280;59793;46.506;6.674;2022-09-09T13:11:39;97085.94;;;23.00;41.39
71917;BME280;59793;46.506;6.674;2022-09-09T13:14:18;97074.53;;;23.25;38.54
71917;BME280;59793;46.506;6.674;2022-09-09T13:16:55;97071.25;;;23.62;39.07
71917;BME280;59793;46.506;6.674;2022-09-09T13:19:21;97062.81;;;24.02;38.90
71917;BME280;59793;46.506;6.674;2022-09-09T13:21:47;97064.13;;;23.98;36.41
71917;BME280;59793;46.506;6.674;2022-09-09T13:24:27;97060.91;;;24.28;35.88
71917;BME280;59793;46.506;6.674;2022-09-09T13:26:59;97077.34;;;23.92;36.55
71917;BME280;59793;46.506;6.674;2022-09-09T13:29:27;97074.00;;;23.75;35.92
71917;BME280;59793;46.506;6.674;2022-09-09T13:31:53;97070.34;;;23.95;37.38
71917;BME280;59793;46.506;6.674;2022-09-09T13:34:30;97064.47;;;24.51;37.95
71917;BME280;59793;46.506;6.674;2022-09-09T13:37:00;97067.41;;;24.44;36.52
71917;BME280;59793;46.506;6.674;2022-09-09T13:39:32;97052.19;;;24.37;36.77
71917;BME280;59793;46.506;6.674;2022-09-09T13:41:58;97055.09;;;24.17;38.05
71917;BME280;59793;46.506;6.674;2022-09-09T13:44:26;97045.63;;;24.25;36.42
71917;BME280;59793;46.506;6.674;2022-09-09T13:47:06;97051.66;;;24.29;36.96
71917;BME280;59793;46.506;6.674;2022-09-09T13:49:42;97042.50;;;24.40;36.17
71917;BME280;59793;46.506;6.674;2022-09-09T13:52:16;97054.44;;;24.39;38.45
71917;BME280;59793;46.506;6.674;2022-09-09T13:54:51;97051.00;;;24.51;39.73
71917;BME280;59793;46.506;6.674;2022-09-09T13:57:23;97041.09;;;24.61;37.96
71917;BME280;59793;46.506;6.674;2022-09-09T13:59:51;97040.13;;;25.02;37.66
71917;BME280;59793;46.506;6.674;2022-09-09T14:02:17;97059.63;;;24.33;38.98
71917;BME280;59793;46.506;6.674;2022-09-09T14:04:43;97053.91;;;24.31;40.17
71917;BME280;59793;46.506;6.674;2022-09-09T14:07:13;97039.16;;;24.61;40.23
71917;BME280;59793;46.506;6.674;2022-09-09T14:09:39;97038.22;;;24.42;37.38
71917;BME280;59793;46.506;6.674;2022-09-09T14:12:08;97040.00;;;24.32;39.65
71917;BME280;59793;46.506;6.674;2022-09-09T14:14:34;97043.97;;;24.79;39.48
71917;BME280;59793;46.506;6.674;2022-09-09T14:17:00;97039.47;;;24.63;39.72
71917;BME280;59793;46.506;6.674;2022-09-09T14:19:25;97037.47;;;24.42;39.77
71917;BME280;59793;46.506;6.674;2022-09-09T14:21:54;97027.31;;;24.46;39.81
71917;BME280;59793;46.506;6.674;2022-09-09T14:24:19;97040.34;;;24.22;40.08
71917;BME280;59793;46.506;6.674;2022-09-09T14:26:44;97038.41;;;24.22;40.27
71917;BME280;59793;46.506;6.674;2022-09-09T14:29:10;97034.41;;;24.01;40.68
71917;BME280;59793;46.506;6.674;2022-09-09T14:31:35;97035.47;;;24.17;40.19
71917;BME280;59793;46.506;6.674;2022-09-09T14:34:00;97035.59;;;24.51;39.34
71917;BME280;59793;46.506;6.674;2022-09-09T14:36:26;97031.63;;;24.56;39.32
71917;BME280;59793;46.506;6.674;2022-09-09T14:38:51;97034.94;;;24.60;39.33
71917;BME280;59793;46.506;6.674;2022-09-09T14:41:18;97023.94;;;24.67;41.10
71917;BME280;59793;46.506;6.674;2022-09-09T14:43:45;97022.13;;;24.99;38.74
71917;BME280;59793;46.506;6.674;2022-09-09T14:46:15;97031.41;;;24.12;39.19
71917;BME280;59793;46.506;6.674;2022-09-09T14:48:41;97030.44;;;24.31;38.50
71917;BME280;59793;46.506;6.674;2022-09-09T14:51:10;97029.88;;;24.37;37.85
71917;BME280;59793;46.506;6.674;2022-09-09T14:53:36;97033.66;;;24.26;38.93
71917;BME280;59793;46.506;6.674;2022-09-09T14:56:09;97038.28;;;24.64;37.18
71917;BME280;59793;46.506;6.674;2022-09-09T14:58:36;97024.41;;;24.15;36.75
71917;BME280;59793;46.506;6.674;2022-09-09T15:01:07;97034.19;;;23.96;37.05
71917;BME280;59793;46.506;6.674;2022-09-09T15:03:35;97039.97;;;23.81;38.77
71917;BME280;59793;46.506;6.674;2022-09-09T15:06:08;97047.88;;;23.47;41.00
71917;BME280;59793;46.506;6.674;2022-09-09T15:08:35;97047.44;;;23.48;39.50
71917;BME280;59793;46.506;6.674;2022-09-09T15:11:02;97045.31;;;23.27;39.85